메인 페이지
METAR-TAF:

METAR-TAF

공항 :

베이징 수도 국제공항

베이징, 중국

위도: 39-56N, 경도: 116-17E, 고도: 55m

현재 날씨관측

예보는 33분 전, 16:00시(UTC)에 발표되었습니다.
북북동2kt
온도 12°C
습도 82%
기압 1009 hPa
시정 10km 이상
1500m 미만 상공 구름 및 적란운 없음

METAR: ZBAA 311600Z 03001MPS CAVOK 12/09 Q1009 NOSIG

시각: 00:33 (16:33 UTC)

예보

예보는 7 시간 32분 전, 09:01시(UTC)에 발표되었습니다.
예보 대상 시간: 31일 12시부터 01일 12시까지 (UTC)
북북서8kt
시정 10km 이상
1500m 미만 상공 구름 및 적란운 없음
전환 중
01일 05시부터 01일 06시까지 (UTC)
10kt
일시적
01일 09시부터 01일 12시까지 (UTC)
고도 4000ft 상공 구름 보통, 적란운.
고도 4000ft 상공 구름 많음
뇌우, 약한비

TAF: ZBAA 310901Z 3112/0112 33004MPS CAVOK TX32/0107Z TN14/3121Z BECMG 0105/0106 18005MPS TEMPO 0109/0112 -TSRA SCT040CB BKN040

4,000개 이상의 공항 관측 자료 및 예보 (METAR 및 TAF 보고).

지도상에서 검색 가능한 기상관측소가 노란 점과 빨간 점으로 표시되어 있습니다.

기상관측소 명을 보려면 표시 위로 마우스를 이동하세요.

날씨 관측과 예보를 보려면 클릭하세요.

지도 변경 : 확대하려면 엑스 표시가 있는 녹색 버튼, 축소하려면 빼기 표시가 있는 녹색 버튼, 다음 페이지의 지도를 보려면 녹색 화살표를 클릭하세요.


METAR-TAF: